createdAt,value
2019-02-26T00:01:57.972Z,20.97
2019-02-26T00:04:29.593Z,21.53
2019-02-26T00:07:00.339Z,21.70
2019-02-26T00:09:30.512Z,22.27
2019-02-26T00:12:00.682Z,20.70
2019-02-26T00:14:30.277Z,21.23
2019-02-26T00:16:59.746Z,21.13
2019-02-26T00:19:29.031Z,21.00
2019-02-26T00:21:58.328Z,19.53
2019-02-26T00:24:30.561Z,19.40
2019-02-26T00:27:00.980Z,20.97
2019-02-26T00:29:30.288Z,20.00
2019-02-26T00:32:00.570Z,20.00
2019-02-26T00:34:30.517Z,21.67
2019-02-26T00:37:01.819Z,19.70
2019-02-26T00:39:31.963Z,21.73
2019-02-26T00:42:02.702Z,21.60
2019-02-26T00:44:32.780Z,21.13
2019-02-26T00:47:04.828Z,21.53
2019-02-26T00:49:34.207Z,22.90
2019-02-26T00:52:04.056Z,21.17
2019-02-26T00:54:36.472Z,21.33
2019-02-26T00:57:08.102Z,20.30
2019-02-26T00:59:38.692Z,19.67
2019-02-26T01:02:07.682Z,19.17
2019-02-26T01:04:39.088Z,20.00
2019-02-26T01:07:09.003Z,19.47
2019-02-26T01:09:38.282Z,20.10
2019-02-26T01:12:09.190Z,18.13
2019-02-26T01:14:39.166Z,17.43
2019-02-26T01:17:09.980Z,17.17
2019-02-26T01:19:41.241Z,17.90
2019-02-26T01:22:11.502Z,19.03
2019-02-26T01:24:40.789Z,18.57
2019-02-26T01:27:10.096Z,19.73
2019-02-26T01:29:39.371Z,20.93
2019-02-26T01:32:11.021Z,20.17
2019-02-26T01:34:40.500Z,19.57
2019-02-26T01:37:12.057Z,19.37
2019-02-26T01:39:42.944Z,19.67
2019-02-26T01:42:13.325Z,19.57
2019-02-26T01:44:44.507Z,19.37
2019-02-26T01:47:13.924Z,20.33
2019-02-26T01:49:44.182Z,19.43
2019-02-26T01:52:15.096Z,19.07
2019-02-26T01:54:45.180Z,20.43
2019-02-26T01:57:14.478Z,19.87
2019-02-26T01:59:43.756Z,19.13
2019-02-26T02:02:17.385Z,20.80
2019-02-26T02:04:44.036Z,20.80
2019-02-26T02:07:13.322Z,19.63
2019-02-26T02:09:46.538Z,19.60
2019-02-26T02:12:13.620Z,20.50
2019-02-26T02:14:42.901Z,19.87
2019-02-26T02:17:13.606Z,19.40
2019-02-26T02:19:43.064Z,19.67
2019-02-26T02:22:14.455Z,19.07
2019-02-26T02:24:44.460Z,18.00
2019-02-26T02:27:17.477Z,18.87
2019-02-26T02:29:46.094Z,18.10
2019-02-26T02:32:16.296Z,17.53
2019-02-26T02:34:45.587Z,17.57
2019-02-26T02:37:15.335Z,17.07
2019-02-26T02:39:46.822Z,17.67
2019-02-26T02:42:17.151Z,17.97
2019-02-26T02:44:49.280Z,17.40
2019-02-26T02:47:18.074Z,17.70
2019-02-26T02:49:47.370Z,17.70
2019-02-26T02:52:16.654Z,17.80
2019-02-26T02:54:47.520Z,16.67
2019-02-26T02:57:16.936Z,17.87
2019-02-26T02:59:46.238Z,18.30
2019-02-26T03:02:17.625Z,17.53
2019-02-26T03:04:46.511Z,18.13
2019-02-26T03:07:17.731Z,17.87
2019-02-26T03:09:46.776Z,18.63
2019-02-26T03:12:16.051Z,18.50
2019-02-26T03:14:45.351Z,19.07
2019-02-26T03:17:18.195Z,18.77
2019-02-26T03:19:46.602Z,17.13
2019-02-26T03:22:18.163Z,17.47
2019-02-26T03:24:48.349Z,18.33
2019-02-26T03:27:17.862Z,18.13
2019-02-26T03:29:47.346Z,17.83
2019-02-26T03:32:18.136Z,16.73
2019-02-26T03:34:48.400Z,17.93
2019-02-26T03:37:25.695Z,17.27
2019-02-26T03:39:57.323Z,17.47
2019-02-26T03:42:25.701Z,18.30
2019-02-26T03:44:55.008Z,18.37
2019-02-26T03:47:24.288Z,17.50
2019-02-26T03:49:53.583Z,19.77
2019-02-26T03:52:22.864Z,18.70
2019-02-26T03:54:52.156Z,17.77
2019-02-26T03:57:22.672Z,18.27
2019-02-26T03:59:52.571Z,18.30
2019-02-26T04:02:23.523Z,18.93
2019-02-26T04:04:54.390Z,18.47
2019-02-26T04:07:25.964Z,18.77
2019-02-26T04:09:55.946Z,19.43
2019-02-26T04:12:26.144Z,19.27
2019-02-26T04:14:55.447Z,17.53
2019-02-26T04:17:27.919Z,18.70
2019-02-26T04:19:55.716Z,19.07
2019-02-26T04:22:29.726Z,18.17
2019-02-26T04:25:06.322Z,19.67
2019-02-26T04:27:44.529Z,19.77
2019-02-26T04:30:39.003Z,18.53
2019-02-26T04:33:38.542Z,18.03
2019-02-26T04:36:22.423Z,18.50
2019-02-26T04:39:13.639Z,19.23
2019-02-26T04:42:09.424Z,19.67
2019-02-26T04:45:09.050Z,19.40
2019-02-26T04:47:41.460Z,19.03
2019-02-26T04:50:10.757Z,18.87
2019-02-26T04:52:42.819Z,19.80
2019-02-26T04:55:11.105Z,18.93
2019-02-26T04:57:43.248Z,18.83
2019-02-26T05:00:11.491Z,19.37
2019-02-26T05:02:40.760Z,20.47
2019-02-26T05:05:10.197Z,18.87
2019-02-26T05:07:43.825Z,18.97
2019-02-26T05:10:10.678Z,19.93
2019-02-26T05:12:40.221Z,18.10
2019-02-26T05:15:13.961Z,19.13
2019-02-26T05:17:40.624Z,18.87
2019-02-26T05:20:12.969Z,19.40
2019-02-26T05:22:40.942Z,20.63
2019-02-26T05:25:13.972Z,19.40
2019-02-26T05:27:42.834Z,19.77
2019-02-26T05:30:13.932Z,19.30
2019-02-26T05:32:43.275Z,21.07
2019-02-26T05:35:14.455Z,19.83
2019-02-26T05:37:43.570Z,20.67
2019-02-26T05:40:15.560Z,19.80
2019-02-26T05:42:43.839Z,19.43
2019-02-26T05:45:13.135Z,19.67
2019-02-26T05:47:43.667Z,20.57
2019-02-26T05:50:16.612Z,20.77
2019-02-26T05:52:44.455Z,20.93
2019-02-26T05:55:14.644Z,20.47
2019-02-26T05:57:44.735Z,19.97
2019-02-26T06:00:18.246Z,18.87
2019-02-26T06:02:48.576Z,20.43
2019-02-26T06:05:18.355Z,19.23
2019-02-26T06:07:49.055Z,21.03
2019-02-26T06:10:19.447Z,21.07
2019-02-26T06:12:49.356Z,21.37
2019-02-26T06:15:20.367Z,20.03
2019-02-26T06:17:51.462Z,19.47
2019-02-26T06:20:23.628Z,20.20
2019-02-26T06:22:53.571Z,20.60
2019-02-26T06:25:24.361Z,21.00
2019-02-26T06:27:54.236Z,20.63
2019-02-26T06:30:23.535Z,20.00
2019-02-26T06:32:52.831Z,21.00
2019-02-26T06:35:22.290Z,20.43
2019-02-26T06:37:51.614Z,21.07
2019-02-26T06:40:20.977Z,21.53
2019-02-26T06:42:50.311Z,20.67
2019-02-26T06:45:19.709Z,20.70
2019-02-26T06:47:51.282Z,21.23
2019-02-26T06:50:19.993Z,21.30
2019-02-26T06:52:50.745Z,23.43
2019-02-26T06:55:20.319Z,22.63
2019-02-26T06:57:50.780Z,22.07
2019-02-26T07:00:23.781Z,22.53
2019-02-26T07:02:51.605Z,22.40
2019-02-26T07:05:23.804Z,22.20
2019-02-26T07:07:54.159Z,22.40
2019-02-26T07:10:26.019Z,22.73
2019-02-26T07:12:54.147Z,22.07
2019-02-26T07:15:23.426Z,22.47
2019-02-26T07:17:52.722Z,23.03
2019-02-26T07:20:21.999Z,22.67
2019-02-26T07:22:51.677Z,23.10
2019-02-26T07:25:21.060Z,23.33
2019-02-26T07:27:51.306Z,24.07
2019-02-26T07:30:21.383Z,23.13
2019-02-26T07:32:50.683Z,23.73
2019-02-26T07:35:19.963Z,24.90
2019-02-26T07:37:49.269Z,23.67
2019-02-26T07:40:18.809Z,21.73
2019-02-26T07:42:49.314Z,22.47
2019-02-26T07:45:22.219Z,20.73
2019-02-26T07:47:51.427Z,19.57
2019-02-26T07:50:21.643Z,20.13
2019-02-26T07:52:52.135Z,20.57
2019-02-26T07:55:35.482Z,19.07
2019-02-26T07:58:06.210Z,23.77
2019-02-26T08:00:37.700Z,21.67
2019-02-26T08:03:07.453Z,21.50
2019-02-26T08:05:36.735Z,21.97
2019-02-26T08:08:06.027Z,22.07
2019-02-26T08:10:39.397Z,22.03
2019-02-26T08:13:07.997Z,19.93
2019-02-26T08:15:38.072Z,19.90
2019-02-26T08:18:08.431Z,19.80
2019-02-26T08:20:40.145Z,19.90
2019-02-26T08:23:08.699Z,21.53
2019-02-26T08:25:37.979Z,21.13
2019-02-26T08:28:07.277Z,20.80
2019-02-26T08:30:40.198Z,21.27
2019-02-26T08:33:07.623Z,21.03
2019-02-26T08:35:36.898Z,21.63
2019-02-26T08:38:06.369Z,22.17
2019-02-26T08:40:35.751Z,21.37
2019-02-26T08:43:05.046Z,25.33
2019-02-26T08:45:34.335Z,22.87
2019-02-26T08:48:03.630Z,21.63
2019-02-26T08:50:33.959Z,21.97
2019-02-26T08:53:03.903Z,22.73
2019-02-26T08:55:33.191Z,21.53
2019-02-26T08:58:02.500Z,21.63
2019-02-26T09:00:31.780Z,21.63
2019-02-26T09:03:01.137Z,21.30
2019-02-26T09:05:33.998Z,21.37
2019-02-26T09:08:01.471Z,22.50
2019-02-26T09:10:30.753Z,21.67
2019-02-26T09:13:00.057Z,21.37
2019-02-26T09:15:31.249Z,21.33
2019-02-26T09:18:00.331Z,22.23
2019-02-26T09:20:30.596Z,22.90
2019-02-26T09:23:01.503Z,22.87
2019-02-26T09:25:31.585Z,22.20
2019-02-26T09:28:01.977Z,23.43
2019-02-26T09:30:33.420Z,22.90
2019-02-26T09:33:03.493Z,21.70
2019-02-26T09:35:33.257Z,22.60
2019-02-26T09:38:02.546Z,22.27
2019-02-26T09:40:34.241Z,22.62
2019-02-26T09:43:02.843Z,23.50
2019-02-26T09:45:32.137Z,22.80
2019-02-26T09:48:01.496Z,23.40
2019-02-26T09:50:30.796Z,23.25
2019-02-26T09:53:00.096Z,22.82
2019-02-26T09:55:29.397Z,23.42
2019-02-26T09:57:58.683Z,24.27
2019-02-26T10:00:29.495Z,23.65
2019-02-26T10:02:58.960Z,22.67
2019-02-26T10:05:28.278Z,23.12
2019-02-26T10:08:00.007Z,24.20
2019-02-26T10:10:31.159Z,24.32
2019-02-26T10:13:02.141Z,23.95
2019-02-26T10:15:32.345Z,26.15
2019-02-26T10:18:04.118Z,24.82
2019-02-26T10:20:32.522Z,23.47
2019-02-26T10:23:04.293Z,24.63
2019-02-26T10:25:35.025Z,24.75
2019-02-26T10:28:08.697Z,23.70
2019-02-26T10:30:38.265Z,24.45
2019-02-26T10:33:07.712Z,25.30
2019-02-26T10:35:39.618Z,25.20
2019-02-26T10:38:11.456Z,23.60
2019-02-26T10:40:50.670Z,24.63
2019-02-26T10:43:11.069Z,25.52
2019-02-26T10:45:44.149Z,24.07
2019-02-26T10:48:13.308Z,25.70
2019-02-26T10:50:45.595Z,23.77
2019-02-26T10:53:16.130Z,25.37
2019-02-26T10:55:44.543Z,25.35
2019-02-26T10:58:13.850Z,26.00
2019-02-26T11:00:43.463Z,24.25
2019-02-26T11:03:14.846Z,24.45
2019-02-26T11:05:45.282Z,23.57
2019-02-26T11:08:14.739Z,25.65
2019-02-26T11:10:44.936Z,24.87
2019-02-26T11:13:17.671Z,25.52
2019-02-26T11:15:48.264Z,25.80
2019-02-26T11:18:18.112Z,25.82
2019-02-26T11:20:52.825Z,25.15
2019-02-26T11:23:30.408Z,24.75
2019-02-26T11:25:52.894Z,25.00
2019-02-26T11:28:22.202Z,25.75
2019-02-26T11:30:54.032Z,25.77
2019-02-26T11:33:22.476Z,24.60
2019-02-26T11:35:51.778Z,26.12
2019-02-26T11:38:22.087Z,25.23
2019-02-26T11:40:51.748Z,26.30
2019-02-26T11:43:25.552Z,24.57
2019-02-26T11:45:52.036Z,26.75
2019-02-26T11:48:23.330Z,25.55
2019-02-26T11:50:53.484Z,25.50
2019-02-26T11:53:22.763Z,24.87
2019-02-26T11:55:54.479Z,26.42
2019-02-26T11:58:24.294Z,26.60
2019-02-26T12:00:57.062Z,26.60
2019-02-26T12:03:28.146Z,23.92
2019-02-26T12:05:59.088Z,25.08
2019-02-26T12:08:28.372Z,24.85
2019-02-26T12:11:01.195Z,25.17
2019-02-26T12:13:28.647Z,24.92
2019-02-26T12:15:59.037Z,26.30
2019-02-26T12:18:28.326Z,24.72
2019-02-26T12:20:57.635Z,25.40
2019-02-26T12:23:26.922Z,23.90
2019-02-26T12:25:58.303Z,24.27
2019-02-26T12:28:28.338Z,23.98
2019-02-26T12:30:59.143Z,23.18
2019-02-26T12:33:32.295Z,23.35
2019-02-26T12:36:02.028Z,23.30
2019-02-26T12:38:36.446Z,23.42
2019-02-26T12:41:05.727Z,23.55
2019-02-26T12:43:36.742Z,21.90
2019-02-26T12:46:08.293Z,22.07
2019-02-26T12:48:37.817Z,21.82
2019-02-26T12:51:07.712Z,20.40
2019-02-26T12:53:47.575Z,21.10
2019-02-26T12:56:20.565Z,22.02
2019-02-26T12:58:53.902Z,21.33
2019-02-26T13:01:20.367Z,21.95
2019-02-26T13:03:53.959Z,22.27
2019-02-26T13:06:22.798Z,20.62
2019-02-26T13:08:51.637Z,20.88
2019-02-26T13:11:24.151Z,21.07
2019-02-26T13:13:53.549Z,19.67
2019-02-26T13:16:23.024Z,19.85
2019-02-26T13:18:56.690Z,18.87
2019-02-26T13:21:23.308Z,18.82
2019-02-26T13:23:52.596Z,20.08
2019-02-26T13:26:22.687Z,19.50
2019-02-26T13:28:52.997Z,19.98
2019-02-26T13:31:23.099Z,20.25
2019-02-26T13:33:54.103Z,18.60
2019-02-26T13:36:23.463Z,19.92
2019-02-26T13:38:52.766Z,20.75
2019-02-26T13:41:29.339Z,18.75
2019-02-26T13:43:53.063Z,20.72
2019-02-26T13:46:22.351Z,20.68
2019-02-26T13:48:51.660Z,21.97
2019-02-26T13:51:20.950Z,20.97
2019-02-26T13:53:50.259Z,21.02
2019-02-26T13:56:19.555Z,21.57
2019-02-26T13:58:48.863Z,21.45
2019-02-26T14:01:18.155Z,20.90
2019-02-26T14:03:47.487Z,20.15
2019-02-26T14:06:17.063Z,20.43
2019-02-26T14:08:46.472Z,20.15
2019-02-26T14:11:15.759Z,20.50
2019-02-26T14:13:45.063Z,20.52
2019-02-26T14:16:14.375Z,20.70
2019-02-26T14:18:43.677Z,21.10
2019-02-26T14:21:13.245Z,20.40
2019-02-26T14:23:42.540Z,20.70
2019-02-26T14:26:11.830Z,19.23
2019-02-26T14:28:41.129Z,21.62
2019-02-26T14:31:10.415Z,19.65
2019-02-26T14:33:39.715Z,19.62
2019-02-26T14:36:09.007Z,19.85
2019-02-26T14:38:38.307Z,20.95
2019-02-26T14:41:07.620Z,21.12
2019-02-26T14:43:36.918Z,21.23
2019-02-26T14:46:06.202Z,21.48
2019-02-26T14:48:35.500Z,18.80
2019-02-26T14:51:04.881Z,19.40
2019-02-26T14:53:34.185Z,18.40
2019-02-26T14:56:03.747Z,17.10
2019-02-26T14:58:33.047Z,16.05
2019-02-26T15:01:03.834Z,15.40
2019-02-26T15:03:33.226Z,15.23
2019-02-26T15:06:02.506Z,15.10
2019-02-26T15:08:31.810Z,14.60
2019-02-26T15:11:01.098Z,14.75
2019-02-26T15:13:30.398Z,14.75
2019-02-26T15:15:59.709Z,15.83
2019-02-26T15:18:29.080Z,13.83
2019-02-26T15:20:58.433Z,15.43
2019-02-26T15:23:27.734Z,15.15
2019-02-26T15:25:57.033Z,14.93
2019-02-26T15:28:26.339Z,13.55
2019-02-26T15:30:55.903Z,14.73
2019-02-26T15:33:25.202Z,13.95
2019-02-26T15:35:54.503Z,14.75
2019-02-26T15:38:23.795Z,15.75
2019-02-26T15:40:53.365Z,17.60
2019-02-26T15:43:24.570Z,16.70
2019-02-26T15:45:53.760Z,16.87
2019-02-26T15:48:23.424Z,18.20
2019-02-26T15:50:54.576Z,17.25
2019-02-26T15:53:24.420Z,18.15
2019-02-26T15:55:53.955Z,18.25
2019-02-26T15:58:23.351Z,18.48
2019-02-26T16:00:54.014Z,18.77
2019-02-26T16:03:23.498Z,18.67
2019-02-26T16:05:54.040Z,17.50
2019-02-26T16:08:23.595Z,18.65
2019-02-26T16:10:53.095Z,16.75
2019-02-26T16:13:22.699Z,18.70
2019-02-26T16:15:52.151Z,18.57
2019-02-26T16:18:21.430Z,18.37
2019-02-26T16:20:51.563Z,18.57
2019-02-26T16:23:20.867Z,19.55
2019-02-26T16:25:50.171Z,18.60
2019-02-26T16:28:19.490Z,18.57
2019-02-26T16:30:48.778Z,18.75
2019-02-26T16:33:18.150Z,17.55
2019-02-26T16:35:47.510Z,19.02
2019-02-26T16:38:16.804Z,18.55
2019-02-26T16:40:46.125Z,18.55
2019-02-26T16:43:17.135Z,18.52
2019-02-26T16:45:47.486Z,17.73
2019-02-26T16:48:21.344Z,16.77
2019-02-26T16:50:48.767Z,16.60
2019-02-26T16:53:18.796Z,16.27
2019-02-26T16:55:49.149Z,15.23
2019-02-26T16:58:18.962Z,15.07
2019-02-26T17:00:48.870Z,15.40
2019-02-26T17:03:20.179Z,14.40
2019-02-26T17:05:49.477Z,14.77
2019-02-26T17:08:18.770Z,15.67
2019-02-26T17:10:48.114Z,17.23
2019-02-26T17:13:17.440Z,21.97
2019-02-26T17:15:46.735Z,24.80
2019-02-26T17:18:16.265Z,24.67
2019-02-26T17:20:46.666Z,23.20
2019-02-26T17:23:17.575Z,21.93
2019-02-26T17:25:46.875Z,20.37
2019-02-26T17:28:16.168Z,20.27
2019-02-26T17:30:45.476Z,19.77
2019-02-26T17:33:14.765Z,17.63
2019-02-26T17:35:44.061Z,15.57
2019-02-26T17:38:15.450Z,16.27
2019-02-26T17:40:44.349Z,15.90
2019-02-26T17:43:13.707Z,16.47
2019-02-26T17:45:43.033Z,16.00
2019-02-26T17:48:12.327Z,16.20
2019-02-26T17:50:43.357Z,17.33
2019-02-26T17:53:13.147Z,16.73
2019-02-26T17:55:42.447Z,17.67
2019-02-26T18:08:56.948Z,16.67
2019-02-26T18:11:26.335Z,16.60
2019-02-26T18:13:57.818Z,16.57
2019-02-26T18:16:27.527Z,16.53
2019-02-26T18:18:59.498Z,17.93
2019-02-26T18:21:28.871Z,15.67
2019-02-26T18:23:58.159Z,17.83
2019-02-26T18:26:27.451Z,18.83
2019-02-26T18:28:58.671Z,18.83
2019-02-26T18:31:31.033Z,19.30
2019-02-26T18:33:59.916Z,19.43
2019-02-26T18:36:29.210Z,21.37
2019-02-26T18:38:58.498Z,20.60
2019-02-26T18:41:30.451Z,20.47
2019-02-26T18:44:01.555Z,19.57
2019-02-26T18:46:33.321Z,19.50
2019-02-26T18:49:01.903Z,20.43
2019-02-26T18:51:36.112Z,19.83
2019-02-26T18:54:03.141Z,20.33
2019-02-26T18:56:36.694Z,19.13
2019-02-26T18:59:03.411Z,20.27
2019-02-26T19:01:32.715Z,18.97
2019-02-26T19:04:02.972Z,19.47
2019-02-26T19:06:32.284Z,20.10
2019-02-26T19:09:01.632Z,19.10
2019-02-26T19:11:32.542Z,20.80
2019-02-26T19:14:02.804Z,21.83
2019-02-26T19:16:32.452Z,21.27
2019-02-26T19:19:01.847Z,20.67
2019-02-26T19:21:31.212Z,19.63
2019-02-26T19:24:04.192Z,18.70
2019-02-26T19:26:31.484Z,18.80
2019-02-26T19:29:00.783Z,19.07
2019-02-26T19:31:30.163Z,19.63
2019-02-26T19:33:59.519Z,19.80
2019-02-26T19:36:28.798Z,19.03
2019-02-26T19:39:00.525Z,18.43
2019-02-26T19:41:29.262Z,17.27
2019-02-26T19:44:00.152Z,17.67
2019-02-26T19:46:30.525Z,17.60
2019-02-26T19:48:59.909Z,18.43
2019-02-26T19:51:29.198Z,18.70
2019-02-26T19:53:58.496Z,17.73
2019-02-26T19:56:27.778Z,19.00
2019-02-26T19:58:57.066Z,19.87
2019-02-26T20:01:26.513Z,20.00
2019-02-26T20:03:55.919Z,20.30
2019-02-26T20:06:26.869Z,22.20
2019-02-26T20:08:56.291Z,21.50
2019-02-26T20:11:25.575Z,21.10
2019-02-26T20:13:54.871Z,21.47
2019-02-26T20:16:27.599Z,22.40
2019-02-26T20:18:56.736Z,21.70
2019-02-26T20:21:26.807Z,22.37
2019-02-26T20:23:56.213Z,21.57
2019-02-26T20:26:25.496Z,22.07
2019-02-26T20:28:54.791Z,21.17
2019-02-26T20:31:24.167Z,20.90
2019-02-26T20:33:53.475Z,19.50
2019-02-26T20:36:22.756Z,21.27
2019-02-26T20:38:52.051Z,23.13
2019-02-26T20:41:22.278Z,19.87
2019-02-26T20:43:53.071Z,19.97
2019-02-26T20:46:24.935Z,19.17
2019-02-26T20:48:53.343Z,19.77
2019-02-26T20:51:26.840Z,19.83
2019-02-26T20:53:53.627Z,19.73
2019-02-26T20:56:22.914Z,19.33
2019-02-26T20:58:52.214Z,19.13
2019-02-26T21:01:22.457Z,19.17
2019-02-26T21:03:51.753Z,19.50
2019-02-26T21:06:21.027Z,19.43
2019-02-26T21:08:50.323Z,19.17
2019-02-26T21:11:22.350Z,22.17
2019-02-26T21:13:50.638Z,22.43
2019-02-26T21:16:20.887Z,23.07
2019-02-26T21:18:50.698Z,21.93
2019-02-26T21:21:19.975Z,21.37
2019-02-26T21:23:49.279Z,20.53
2019-02-26T21:26:19.677Z,21.63
2019-02-26T21:28:49.645Z,22.20
2019-02-26T21:31:19.607Z,20.80
2019-02-26T21:33:48.982Z,21.53
2019-02-26T21:36:18.264Z,22.07
2019-02-26T21:38:47.562Z,20.67
2019-02-26T21:41:16.849Z,21.03
2019-02-26T21:43:46.199Z,20.83
2019-02-26T21:46:15.509Z,20.10
2019-02-26T21:48:44.810Z,21.77
2019-02-26T21:51:14.090Z,20.60
2019-02-26T21:53:43.387Z,19.13
2019-02-26T21:56:15.666Z,19.30
2019-02-26T21:58:43.660Z,19.70
2019-02-26T22:01:12.943Z,19.37
2019-02-26T22:03:42.235Z,20.03
2019-02-26T22:06:11.555Z,19.47
2019-02-26T22:08:40.885Z,20.23
2019-02-26T22:11:10.162Z,19.97
2019-02-26T22:13:39.457Z,19.37
2019-02-26T22:16:08.743Z,18.50
2019-02-26T22:18:38.034Z,20.90
2019-02-26T22:21:07.319Z,19.27
2019-02-26T22:23:36.617Z,19.10
2019-02-26T22:26:05.895Z,18.33
2019-02-26T22:28:35.190Z,18.97
2019-02-26T22:31:04.467Z,20.07
2019-02-26T22:33:33.770Z,18.93
2019-02-26T22:36:03.064Z,19.47
2019-02-26T22:38:32.366Z,19.23
2019-02-26T22:41:02.366Z,19.43
2019-02-26T22:43:32.308Z,19.43
2019-02-26T22:46:01.779Z,19.83
2019-02-26T22:48:31.167Z,20.50
2019-02-26T22:51:00.451Z,18.53
2019-02-26T22:53:29.751Z,19.87
2019-02-26T22:55:59.038Z,21.10
2019-02-26T22:58:28.347Z,20.17
2019-02-26T23:01:17.186Z,19.07
2019-02-26T23:03:50.729Z,19.67
2019-02-26T23:06:20.146Z,19.43
2019-02-26T23:08:49.507Z,19.30
2019-02-26T23:11:18.932Z,19.53
2019-02-26T23:13:48.541Z,21.10
2019-02-26T23:16:18.489Z,22.33
2019-02-26T23:18:48.721Z,21.90
2019-02-26T23:21:18.351Z,20.73
2019-02-26T23:23:48.320Z,20.40
2019-02-26T23:26:17.654Z,19.60
2019-02-26T23:28:47.124Z,19.43
2019-02-26T23:31:17.315Z,20.10
2019-02-26T23:33:48.483Z,19.03
2019-02-26T23:36:17.720Z,18.83
2019-02-26T23:38:47.472Z,19.10
2019-02-26T23:41:16.841Z,18.83
2019-02-26T23:43:46.190Z,19.13
2019-02-26T23:46:16.626Z,20.33
2019-02-26T23:48:45.903Z,19.83
2019-02-26T23:51:15.197Z,18.63
2019-02-26T23:53:44.479Z,19.43
2019-02-26T23:56:13.789Z,19.37
2019-02-26T23:58:43.069Z,19.13
